createdAt,value
2023-03-05T00:01:46.660Z,3.03
2023-03-05T00:04:14.323Z,2.97
2023-03-05T00:06:40.717Z,2.91
2023-03-05T00:09:07.325Z,2.83
2023-03-05T00:11:34.121Z,2.81
2023-03-05T00:14:01.833Z,2.89
2023-03-05T00:16:28.458Z,2.92
2023-03-05T00:18:55.913Z,2.93
2023-03-05T00:21:22.227Z,2.92
2023-03-05T00:23:50.574Z,2.84
2023-03-05T00:26:18.238Z,2.82
2023-03-05T00:28:44.573Z,2.85
2023-03-05T00:31:10.998Z,2.79
2023-03-05T00:33:37.321Z,2.81
2023-03-05T00:36:05.818Z,2.84
2023-03-05T00:38:32.959Z,2.63
2023-03-05T00:40:59.234Z,2.47
2023-03-05T00:43:25.559Z,2.40
2023-03-05T00:45:51.875Z,2.39
2023-03-05T00:48:18.192Z,2.50
2023-03-05T00:50:44.606Z,2.47
2023-03-05T00:53:10.936Z,2.57
2023-03-05T00:55:37.296Z,2.49
2023-03-05T00:58:03.623Z,2.43
2023-03-05T01:00:29.916Z,2.42
2023-03-05T01:02:56.231Z,2.44
2023-03-05T01:05:22.684Z,2.46
2023-03-05T01:07:52.252Z,2.40
2023-03-05T01:10:18.545Z,2.26
2023-03-05T01:12:44.876Z,2.37
2023-03-05T01:15:11.241Z,2.34
2023-03-05T01:17:37.538Z,2.28
2023-03-05T01:20:05.056Z,2.26
2023-03-05T01:22:31.380Z,2.28
2023-03-05T01:24:57.748Z,2.10
2023-03-05T01:27:24.267Z,2.22
2023-03-05T01:29:50.570Z,2.14
2023-03-05T01:32:16.974Z,2.17
2023-03-05T01:34:43.391Z,2.03
2023-03-05T01:37:09.671Z,2.15
2023-03-05T01:39:36.363Z,2.02
2023-03-05T01:42:03.421Z,1.99
2023-03-05T01:44:30.449Z,2.05
2023-03-05T01:46:56.769Z,2.10
2023-03-05T01:49:37.594Z,2.10
2023-03-05T01:52:03.920Z,1.97
2023-03-05T01:54:48.089Z,2.08
2023-03-05T01:57:16.694Z,2.12
2023-03-05T01:59:44.650Z,2.00
2023-03-05T02:02:12.545Z,1.95
2023-03-05T02:04:44.702Z,1.95
2023-03-05T02:07:11.654Z,1.94
2023-03-05T02:09:39.084Z,1.96
2023-03-05T02:12:05.856Z,2.01
2023-03-05T02:14:33.172Z,1.80
2023-03-05T02:16:59.757Z,1.85
2023-03-05T02:19:26.266Z,1.96
2023-03-05T02:21:52.708Z,2.03
2023-03-05T02:24:32.116Z,2.12
2023-03-05T02:26:58.615Z,2.02
2023-03-05T02:29:24.908Z,1.95
2023-03-05T02:31:51.277Z,1.87
2023-03-05T02:34:17.640Z,1.81
2023-03-05T02:36:43.951Z,2.00
2023-03-05T02:39:10.323Z,2.07
2023-03-05T02:41:36.820Z,1.84
2023-03-05T02:44:03.160Z,1.92
2023-03-05T02:46:29.676Z,1.94
2023-03-05T02:48:56.028Z,2.00
2023-03-05T02:51:22.387Z,1.95
2023-03-05T02:53:48.740Z,2.13
2023-03-05T02:56:15.098Z,2.16
2023-03-05T02:58:41.936Z,2.20
2023-03-05T03:01:09.035Z,2.15
2023-03-05T03:03:35.937Z,2.19
2023-03-05T03:06:02.660Z,2.30
2023-03-05T03:08:28.927Z,2.27
2023-03-05T03:10:56.449Z,2.09
2023-03-05T03:13:25.614Z,1.98
2023-03-05T03:16:01.150Z,2.03
2023-03-05T03:18:27.456Z,2.05
2023-03-05T03:20:53.745Z,2.01
2023-03-05T03:23:20.039Z,1.84
2023-03-05T03:25:46.340Z,1.97
2023-03-05T03:28:12.706Z,1.94
2023-03-05T03:30:39.071Z,2.12
2023-03-05T03:33:05.450Z,2.04
2023-03-05T03:35:31.756Z,1.86
2023-03-05T03:37:58.045Z,2.08
2023-03-05T03:40:24.328Z,1.94
2023-03-05T03:42:54.032Z,1.75
2023-03-05T03:45:22.177Z,1.83
2023-03-05T03:47:48.960Z,1.63
2023-03-05T03:50:15.490Z,1.77
2023-03-05T03:52:41.802Z,1.85
2023-03-05T03:55:08.296Z,1.73
2023-03-05T03:57:34.642Z,1.65
2023-03-05T04:00:01.065Z,1.70
2023-03-05T04:02:27.649Z,1.62
2023-03-05T04:04:53.982Z,1.57
2023-03-05T04:07:20.316Z,1.71
2023-03-05T04:09:46.715Z,1.69
2023-03-05T04:12:17.813Z,1.65
2023-03-05T04:14:45.435Z,1.70
2023-03-05T04:17:12.158Z,1.63
2023-03-05T04:19:38.631Z,1.67
2023-03-05T04:22:05.079Z,1.61
2023-03-05T04:24:31.349Z,1.40
2023-03-05T04:26:57.633Z,1.50
2023-03-05T04:29:23.964Z,1.39
2023-03-05T04:31:50.261Z,1.63
2023-03-05T04:34:16.546Z,1.49
2023-03-05T04:36:42.918Z,1.52
2023-03-05T04:39:09.224Z,1.54
2023-03-05T04:41:35.531Z,1.41
2023-03-05T04:44:01.858Z,1.55
2023-03-05T04:46:28.396Z,1.33
2023-03-05T04:48:54.791Z,1.32
2023-03-05T04:51:21.110Z,1.30
2023-03-05T04:53:47.593Z,1.28
2023-03-05T04:56:14.077Z,1.10
2023-03-05T04:58:40.409Z,1.03
2023-03-05T05:01:07.277Z,1.20
2023-03-05T05:03:34.056Z,1.15
2023-03-05T05:06:00.896Z,1.30
2023-03-05T05:08:27.307Z,1.21
2023-03-05T05:11:00.621Z,1.08
2023-03-05T05:13:27.069Z,1.12
2023-03-05T05:15:54.032Z,1.05
2023-03-05T05:18:20.596Z,1.12
2023-03-05T05:20:47.327Z,1.08
2023-03-05T05:23:13.769Z,1.12
2023-03-05T05:25:40.144Z,1.18
2023-03-05T05:28:06.738Z,1.12
2023-03-05T05:30:33.012Z,1.03
2023-03-05T05:32:59.300Z,0.97
2023-03-05T05:35:25.641Z,1.00
2023-03-05T05:37:52.082Z,1.19
2023-03-05T05:40:18.471Z,1.13
2023-03-05T05:42:45.300Z,1.13
2023-03-05T05:45:12.154Z,1.13
2023-03-05T05:47:38.457Z,1.02
2023-03-05T05:50:05.147Z,1.14
2023-03-05T05:52:31.529Z,1.16
2023-03-05T05:54:57.859Z,0.96
2023-03-05T05:57:24.905Z,1.15
2023-03-05T05:59:51.419Z,0.95
2023-03-05T06:02:17.727Z,0.99
2023-03-05T06:04:44.033Z,0.87
2023-03-05T06:07:10.390Z,0.96
2023-03-05T06:09:36.992Z,1.13
2023-03-05T06:12:03.470Z,0.87
2023-03-05T06:14:29.864Z,1.22
2023-03-05T06:16:56.275Z,1.29
2023-03-05T06:19:22.571Z,1.41
2023-03-05T06:21:48.955Z,1.32
2023-03-05T06:24:15.375Z,1.42
2023-03-05T06:26:41.674Z,1.45
2023-03-05T06:29:08.030Z,1.52
2023-03-05T06:31:36.780Z,1.52
2023-03-05T06:34:04.527Z,1.62
2023-03-05T06:36:31.191Z,1.62
2023-03-05T06:38:57.974Z,1.74
2023-03-05T06:41:26.685Z,1.74
2023-03-05T06:43:53.661Z,1.68
2023-03-05T06:46:21.561Z,1.77
2023-03-05T06:48:48.219Z,1.76
2023-03-05T06:51:16.148Z,1.79
2023-03-05T06:53:42.721Z,1.78
2023-03-05T06:56:09.644Z,1.72
2023-03-05T06:58:35.960Z,1.66
2023-03-05T07:01:04.901Z,1.57
2023-03-05T07:03:31.256Z,1.58
2023-03-05T07:05:57.611Z,1.82
2023-03-05T07:08:23.968Z,1.77
2023-03-05T07:10:50.270Z,1.94
2023-03-05T07:13:16.595Z,2.00
2023-03-05T07:15:42.967Z,2.06
2023-03-05T07:18:09.293Z,1.91
2023-03-05T07:20:36.158Z,2.02
2023-03-05T07:23:02.572Z,2.28
2023-03-05T07:25:29.156Z,2.05
2023-03-05T07:27:55.540Z,1.95
2023-03-05T07:30:22.124Z,2.18
2023-03-05T07:32:48.445Z,2.38
2023-03-05T07:35:14.827Z,2.16
2023-03-05T07:37:41.238Z,2.18
2023-03-05T07:40:08.029Z,2.24
2023-03-05T07:42:34.451Z,2.23
2023-03-05T07:45:00.767Z,2.33
2023-03-05T07:47:27.064Z,2.24
2023-03-05T07:49:53.432Z,2.08
2023-03-05T07:52:19.806Z,2.26
2023-03-05T07:54:46.267Z,2.39
2023-03-05T07:57:13.378Z,2.30
2023-03-05T07:59:40.146Z,2.40
2023-03-05T08:02:06.983Z,2.37
2023-03-05T08:04:33.387Z,2.31
2023-03-05T08:07:00.090Z,2.50
2023-03-05T08:09:27.671Z,2.66
2023-03-05T08:11:53.975Z,2.69
2023-03-05T08:14:20.345Z,2.85
2023-03-05T08:16:48.350Z,2.86
2023-03-05T08:19:14.834Z,2.88
2023-03-05T08:21:41.197Z,2.83
2023-03-05T08:24:08.701Z,3.03
2023-03-05T08:26:38.383Z,3.08
2023-03-05T08:29:05.247Z,3.17
2023-03-05T08:31:32.237Z,3.20
2023-03-05T08:34:00.014Z,3.07
2023-03-05T08:36:26.563Z,3.24
2023-03-05T08:38:52.972Z,3.21
2023-03-05T08:41:19.950Z,3.26
2023-03-05T08:43:46.298Z,3.12
2023-03-05T08:46:13.142Z,3.47
2023-03-05T08:48:40.115Z,3.49
2023-03-05T08:51:09.831Z,3.49
2023-03-05T08:53:36.597Z,3.45
2023-03-05T08:56:03.733Z,3.39
2023-03-05T08:58:30.097Z,3.42
2023-03-05T09:00:56.460Z,3.44
2023-03-05T09:03:22.821Z,3.61
2023-03-05T09:05:49.176Z,3.79
2023-03-05T09:08:15.614Z,3.45
2023-03-05T09:10:42.831Z,3.56
2023-03-05T09:13:09.627Z,3.64
2023-03-05T09:15:36.035Z,3.85
2023-03-05T09:18:02.570Z,3.82
2023-03-05T09:20:28.885Z,3.71
2023-03-05T09:22:55.216Z,3.73
2023-03-05T09:25:21.668Z,3.64
2023-03-05T09:27:48.010Z,3.72
2023-03-05T09:30:15.129Z,3.56
2023-03-05T09:32:41.534Z,3.58
2023-03-05T09:35:08.413Z,3.57
2023-03-05T09:37:34.754Z,3.66
2023-03-05T09:40:01.114Z,3.63
2023-03-05T09:42:54.106Z,3.78
2023-03-05T09:45:20.403Z,3.74
2023-03-05T09:47:49.750Z,3.57
2023-03-05T09:50:25.200Z,3.46
2023-03-05T09:52:57.723Z,3.75
2023-03-05T09:55:27.872Z,3.56
2023-03-05T09:57:57.045Z,3.52
2023-03-05T10:00:32.652Z,3.56
2023-03-05T10:03:00.926Z,3.50
2023-03-05T10:05:50.339Z,3.58
2023-03-05T10:08:19.004Z,3.79
2023-03-05T10:10:49.785Z,3.73
2023-03-05T10:13:38.043Z,3.96
2023-03-05T10:16:04.872Z,3.89
2023-03-05T10:18:51.439Z,3.98
2023-03-05T10:21:24.308Z,4.01
2023-03-05T10:24:06.043Z,4.08
2023-03-05T10:26:38.980Z,3.99
2023-03-05T10:29:08.318Z,4.07
2023-03-05T10:31:37.691Z,3.62
2023-03-05T10:34:25.408Z,3.69
2023-03-05T10:37:15.020Z,3.76
2023-03-05T10:39:50.648Z,3.53
2023-03-05T10:42:20.266Z,3.47
2023-03-05T10:44:52.694Z,3.65
2023-03-05T10:47:27.920Z,3.69
2023-03-05T10:49:55.419Z,3.70
2023-03-05T10:52:28.183Z,3.74
2023-03-05T10:54:54.525Z,3.77
2023-03-05T10:57:21.998Z,3.84
2023-03-05T10:59:48.275Z,3.75
2023-03-05T11:02:14.813Z,3.77
2023-03-05T11:04:41.697Z,3.69
2023-03-05T11:07:27.937Z,3.56
2023-03-05T11:10:00.403Z,3.54
2023-03-05T11:12:27.940Z,3.73
2023-03-05T11:15:03.635Z,3.80
2023-03-05T11:17:32.354Z,3.80
2023-03-05T11:20:19.229Z,3.82
2023-03-05T11:23:04.066Z,3.98
2023-03-05T11:25:31.177Z,4.25
2023-03-05T11:27:59.660Z,4.18
2023-03-05T11:30:33.220Z,3.94
2023-03-05T11:33:20.486Z,4.02
2023-03-05T11:35:47.525Z,3.85
2023-03-05T11:38:18.794Z,4.03
2023-03-05T11:40:45.761Z,4.24
2023-03-05T11:43:16.868Z,4.37
2023-03-05T11:45:44.090Z,4.39
2023-03-05T11:48:17.673Z,4.54
2023-03-05T11:50:45.640Z,4.53
2023-03-05T11:53:14.845Z,4.57
2023-03-05T11:55:43.923Z,4.59
2023-03-05T11:58:13.248Z,4.57
2023-03-05T12:00:43.044Z,4.64
2023-03-05T12:03:13.803Z,4.41
2023-03-05T12:05:41.938Z,4.33
2023-03-05T12:08:12.312Z,4.35
2023-03-05T12:10:38.762Z,4.51
2023-03-05T12:13:12.407Z,4.44
2023-03-05T12:15:46.806Z,4.50
2023-03-05T12:18:19.607Z,4.37
2023-03-05T12:20:46.535Z,4.23
2023-03-05T12:23:17.896Z,4.08
2023-03-05T12:25:50.222Z,4.29
2023-03-05T12:28:36.549Z,4.41
2023-03-05T12:31:21.617Z,4.52
2023-03-05T12:33:48.013Z,4.53
2023-03-05T12:36:17.187Z,4.38
2023-03-05T12:38:44.157Z,4.34
2023-03-05T12:41:22.634Z,4.32
2023-03-05T12:44:07.326Z,4.61
2023-03-05T12:46:35.594Z,4.28
2023-03-05T12:49:20.258Z,4.48
2023-03-05T12:51:48.131Z,4.54
2023-03-05T12:54:24.597Z,4.68
2023-03-05T12:56:52.361Z,4.70
2023-03-05T12:59:20.537Z,4.53
2023-03-05T13:01:50.656Z,4.70
2023-03-05T13:04:21.125Z,4.60
2023-03-05T13:06:57.457Z,4.57
2023-03-05T13:09:25.333Z,4.39
2023-03-05T13:11:53.812Z,4.41
2023-03-05T13:14:37.664Z,4.25
2023-03-05T13:17:23.906Z,4.31
2023-03-05T13:19:50.367Z,4.42
2023-03-05T13:22:16.768Z,4.52
2023-03-05T13:24:43.088Z,4.49
2023-03-05T13:27:30.115Z,4.43
2023-03-05T13:29:56.490Z,4.32
2023-03-05T13:32:25.832Z,4.39
2023-03-05T13:34:53.895Z,4.44
2023-03-05T13:37:21.531Z,4.39
2023-03-05T13:39:47.837Z,4.31
2023-03-05T13:42:25.697Z,4.58
2023-03-05T13:44:59.759Z,4.60
2023-03-05T13:47:28.591Z,4.21
2023-03-05T13:49:56.070Z,4.36
2023-03-05T13:52:29.881Z,4.33
2023-03-05T13:54:56.985Z,4.38
2023-03-05T13:57:43.212Z,4.36
2023-03-05T14:00:26.058Z,4.26
2023-03-05T14:02:59.505Z,4.07
2023-03-05T14:05:26.769Z,4.13
2023-03-05T14:07:53.304Z,4.21
2023-03-05T14:10:38.068Z,4.26
2023-03-05T14:13:05.854Z,4.16
2023-03-05T14:15:33.800Z,4.35
2023-03-05T14:18:15.962Z,4.19
2023-03-05T14:20:59.647Z,4.27
2023-03-05T14:23:32.186Z,4.27
2023-03-05T14:26:13.804Z,4.35
2023-03-05T14:28:40.584Z,4.42
2023-03-05T14:31:15.404Z,4.34
2023-03-05T14:33:41.875Z,4.37
2023-03-05T14:36:09.078Z,4.30
2023-03-05T14:38:39.206Z,4.16
2023-03-05T14:41:24.406Z,4.14
2023-03-05T14:43:50.784Z,4.00
2023-03-05T14:46:17.435Z,3.85
2023-03-05T14:48:43.864Z,3.85
2023-03-05T14:51:10.405Z,3.87
2023-03-05T14:53:40.171Z,3.89
2023-03-05T14:56:07.057Z,3.98
2023-03-05T14:58:35.345Z,3.97
2023-03-05T15:01:01.684Z,3.86
2023-03-05T15:03:28.130Z,3.91
2023-03-05T15:05:56.192Z,3.82
2023-03-05T15:08:24.373Z,3.94
2023-03-05T15:10:51.407Z,3.90
2023-03-05T15:13:17.965Z,3.76
2023-03-05T15:15:45.218Z,3.76
2023-03-05T15:18:16.091Z,3.75
2023-03-05T15:20:42.681Z,3.95
2023-03-05T15:23:09.085Z,4.08
2023-03-05T15:25:35.458Z,4.01
2023-03-05T15:28:02.071Z,3.86
2023-03-05T15:30:35.436Z,3.93
2023-03-05T15:33:03.103Z,3.92
2023-03-05T15:35:29.759Z,3.95
2023-03-05T15:37:57.844Z,3.90
2023-03-05T15:40:24.492Z,3.86
2023-03-05T15:42:50.903Z,3.63
2023-03-05T15:45:17.261Z,3.69
2023-03-05T15:47:43.755Z,3.69
2023-03-05T15:50:10.622Z,3.76
2023-03-05T15:52:36.974Z,3.87
2023-03-05T15:55:03.524Z,3.78
2023-03-05T15:57:29.835Z,3.77
2023-03-05T15:59:56.233Z,3.64
2023-03-05T16:02:24.601Z,3.67
2023-03-05T16:04:50.943Z,3.75
2023-03-05T16:07:17.405Z,3.58
2023-03-05T16:09:47.940Z,3.65
2023-03-05T16:12:16.051Z,3.68
2023-03-05T16:14:42.455Z,3.61
2023-03-05T16:17:09.074Z,3.51
2023-03-05T16:19:37.001Z,3.55
2023-03-05T16:22:03.300Z,3.39
2023-03-05T16:24:29.791Z,3.39
2023-03-05T16:26:56.231Z,3.36
2023-03-05T16:29:22.716Z,3.41
2023-03-05T16:31:50.602Z,3.33
2023-03-05T16:34:18.660Z,3.18
2023-03-05T16:36:47.073Z,3.25
2023-03-05T16:39:13.381Z,3.21
2023-03-05T16:41:39.719Z,3.28
2023-03-05T16:44:06.267Z,3.38
2023-03-05T16:46:35.063Z,3.29
2023-03-05T16:49:02.059Z,3.06
2023-03-05T16:51:28.493Z,3.12
2023-03-05T16:53:55.828Z,3.00
2023-03-05T16:56:22.679Z,3.21
2023-03-05T16:58:51.393Z,2.99
2023-03-05T17:01:20.598Z,2.74
2023-03-05T17:03:47.648Z,2.95
2023-03-05T17:06:15.557Z,2.75
2023-03-05T17:08:42.572Z,2.95
2023-03-05T17:11:09.347Z,2.95
2023-03-05T17:13:36.209Z,2.79
2023-03-05T17:16:02.751Z,2.78
2023-03-05T17:18:29.407Z,2.80
2023-03-05T17:20:55.728Z,2.62
2023-03-05T17:23:22.488Z,2.67
2023-03-05T17:25:49.009Z,2.43
2023-03-05T17:28:15.451Z,2.38
2023-03-05T17:30:42.196Z,2.72
2023-03-05T17:33:09.750Z,2.71
2023-03-05T17:35:36.347Z,2.29
2023-03-05T17:38:03.729Z,2.52
2023-03-05T17:40:30.242Z,2.54
2023-03-05T17:42:56.622Z,2.41
2023-03-05T17:45:23.188Z,2.35
2023-03-05T17:47:49.822Z,2.45
2023-03-05T17:50:16.308Z,2.56
2023-03-05T17:52:42.739Z,2.37
2023-03-05T17:55:11.062Z,2.19
2023-03-05T17:57:42.490Z,2.12
2023-03-05T18:00:19.019Z,2.43
2023-03-05T18:02:46.412Z,2.30
2023-03-05T18:05:13.410Z,2.25
2023-03-05T18:07:39.840Z,1.93
2023-03-05T18:10:07.323Z,1.96
2023-03-05T18:12:33.762Z,2.07
2023-03-05T18:15:00.268Z,2.02
2023-03-05T18:17:26.669Z,2.09
2023-03-05T18:19:53.583Z,2.10
2023-03-05T18:22:19.885Z,2.11
2023-03-05T18:24:46.175Z,2.07
2023-03-05T18:27:12.612Z,2.13
2023-03-05T18:29:38.968Z,2.01
2023-03-05T18:32:05.537Z,2.12
2023-03-05T18:34:31.882Z,2.00
2023-03-05T18:37:00.317Z,2.12
2023-03-05T18:39:29.583Z,2.11
2023-03-05T18:41:56.164Z,2.07
2023-03-05T18:44:22.487Z,2.25
2023-03-05T18:46:48.801Z,2.06
2023-03-05T18:49:15.144Z,2.02
2023-03-05T18:51:41.736Z,2.26
2023-03-05T18:54:09.196Z,2.26
2023-03-05T18:56:35.688Z,2.01
2023-03-05T18:59:02.198Z,2.13
2023-03-05T19:01:28.606Z,2.17
2023-03-05T19:03:55.026Z,1.87
2023-03-05T19:06:21.426Z,2.10
2023-03-05T19:08:57.479Z,2.23
2023-03-05T19:11:24.431Z,2.05
2023-03-05T19:13:51.448Z,2.05
2023-03-05T19:16:19.150Z,2.13
2023-03-05T19:19:02.335Z,1.96
2023-03-05T19:21:32.062Z,2.00
2023-03-05T19:23:58.367Z,1.98
2023-03-05T19:26:25.041Z,1.87
2023-03-05T19:28:51.535Z,1.93
2023-03-05T19:31:18.618Z,1.98
2023-03-05T19:33:45.114Z,1.98
2023-03-05T19:36:11.927Z,2.11
2023-03-05T19:38:38.710Z,1.94
2023-03-05T19:41:05.615Z,1.84
2023-03-05T19:43:32.207Z,1.96
2023-03-05T19:46:06.397Z,2.03
2023-03-05T19:48:33.704Z,1.98
2023-03-05T19:51:00.066Z,2.07
2023-03-05T19:53:26.648Z,2.02
2023-03-05T19:55:53.128Z,1.81
2023-03-05T19:58:20.101Z,2.03
2023-03-05T20:00:46.553Z,2.17
2023-03-05T20:03:13.045Z,1.92
2023-03-05T20:05:40.965Z,1.84
2023-03-05T20:08:07.555Z,1.98
2023-03-05T20:10:33.963Z,1.91
2023-03-05T20:13:00.306Z,1.95
2023-03-05T20:15:29.218Z,1.94
2023-03-05T20:17:57.188Z,2.06
2023-03-05T20:20:23.791Z,1.88
2023-03-05T20:22:50.433Z,1.97
2023-03-05T20:25:17.774Z,1.85
2023-03-05T20:27:45.401Z,1.92
2023-03-05T20:30:12.946Z,1.88
2023-03-05T20:32:40.889Z,1.84
2023-03-05T20:35:07.872Z,1.80
2023-03-05T20:38:20.088Z,1.58
2023-03-05T20:40:48.529Z,1.51
2023-03-05T20:43:14.956Z,1.62
2023-03-05T20:45:41.305Z,1.92
2023-03-05T20:48:07.748Z,1.65
2023-03-05T20:50:34.299Z,1.71
2023-03-05T20:53:00.692Z,1.83
2023-03-05T20:55:28.852Z,1.66
2023-03-05T20:57:55.631Z,1.85
2023-03-05T21:00:22.283Z,1.67
2023-03-05T21:02:51.451Z,1.87
2023-03-05T21:05:20.275Z,1.89
2023-03-05T21:07:46.636Z,1.80
2023-03-05T21:10:14.106Z,2.13
2023-03-05T21:12:40.427Z,1.72
2023-03-05T21:15:07.119Z,1.97
2023-03-05T21:17:33.448Z,2.00
2023-03-05T21:20:00.104Z,1.90
2023-03-05T21:22:26.442Z,1.79
2023-03-05T21:25:14.114Z,1.98
2023-03-05T21:27:40.577Z,2.14
2023-03-05T21:30:07.263Z,2.04
2023-03-05T21:32:34.582Z,2.20
2023-03-05T21:35:01.244Z,1.95
2023-03-05T21:37:27.714Z,2.10
2023-03-05T21:39:54.059Z,1.98
2023-03-05T21:42:20.534Z,1.95
2023-03-05T21:44:48.183Z,1.67
2023-03-05T21:47:14.506Z,1.72
2023-03-05T21:49:40.998Z,1.80
2023-03-05T21:52:11.726Z,1.85
2023-03-05T21:54:39.122Z,2.01
2023-03-05T21:57:06.473Z,1.86
2023-03-05T21:59:32.915Z,1.83
2023-03-05T22:01:59.566Z,1.88
2023-03-05T22:04:26.379Z,1.75
2023-03-05T22:06:52.981Z,1.96
2023-03-05T22:09:19.728Z,1.77
2023-03-05T22:11:46.186Z,1.96
2023-03-05T22:14:12.539Z,2.16
2023-03-05T22:16:39.048Z,2.06
2023-03-05T22:19:05.697Z,1.96
2023-03-05T22:21:32.056Z,2.05
2023-03-05T22:23:58.911Z,2.10
2023-03-05T22:26:26.566Z,2.02
2023-03-05T22:28:52.885Z,2.13
2023-03-05T22:31:23.160Z,2.11
2023-03-05T22:33:50.115Z,1.80
2023-03-05T22:36:16.448Z,2.02
2023-03-05T22:38:42.814Z,2.04
2023-03-05T22:41:10.199Z,1.96
2023-03-05T22:43:36.596Z,1.78
2023-03-05T22:46:10.435Z,1.88
2023-03-05T22:48:36.902Z,1.87
2023-03-05T22:51:03.204Z,1.92
2023-03-05T22:53:29.554Z,1.93
2023-03-05T22:55:55.893Z,1.94
2023-03-05T22:58:22.245Z,1.92
2023-03-05T23:00:48.764Z,1.88
2023-03-05T23:03:15.722Z,1.97
2023-03-05T23:05:42.077Z,1.95
2023-03-05T23:08:08.541Z,2.04
2023-03-05T23:10:34.933Z,1.96
2023-03-05T23:13:01.552Z,1.93
2023-03-05T23:15:29.349Z,1.87
2023-03-05T23:17:55.882Z,1.97
2023-03-05T23:20:23.878Z,1.80
2023-03-05T23:22:52.852Z,1.91
2023-03-05T23:25:20.328Z,1.83
2023-03-05T23:27:46.629Z,1.81
2023-03-05T23:30:21.926Z,1.73
2023-03-05T23:32:51.518Z,1.82
2023-03-05T23:35:19.841Z,1.73
2023-03-05T23:37:46.302Z,1.81
2023-03-05T23:40:15.359Z,1.94
2023-03-05T23:42:42.231Z,1.89
2023-03-05T23:45:09.666Z,1.76
2023-03-05T23:47:36.356Z,1.79
2023-03-05T23:50:07.197Z,1.68
2023-03-05T23:52:33.721Z,1.75
2023-03-05T23:55:00.053Z,1.78
2023-03-05T23:57:26.494Z,1.78
2023-03-05T23:59:52.788Z,1.87
